createdAt,value
2023-03-30T00:01:22.896Z,10.30
2023-03-30T00:04:12.359Z,10.30
2023-03-30T00:07:00.465Z,10.30
2023-03-30T00:09:49.834Z,10.20
2023-03-30T00:12:38.149Z,10.30
2023-03-30T00:15:26.159Z,10.20
2023-03-30T00:18:14.478Z,10.20
2023-03-30T00:21:03.322Z,10.20
2023-03-30T00:23:52.325Z,10.10
2023-03-30T00:26:41.885Z,10.10
2023-03-30T00:29:29.894Z,10.10
2023-03-30T00:32:17.901Z,10.10
2023-03-30T00:35:06.382Z,10.10
2023-03-30T00:37:54.384Z,10.00
2023-03-30T00:40:42.395Z,10.00
2023-03-30T00:43:33.344Z,10.00
2023-03-30T00:46:22.832Z,9.90
2023-03-30T00:49:12.212Z,9.90
2023-03-30T00:52:00.856Z,10.00
2023-03-30T00:54:48.981Z,9.90
2023-03-30T00:57:38.584Z,9.90
2023-03-30T01:00:28.145Z,9.80
2023-03-30T01:03:18.067Z,9.80
2023-03-30T01:06:07.583Z,9.80
2023-03-30T01:08:55.907Z,9.80
2023-03-30T01:11:44.440Z,9.80
2023-03-30T01:14:32.793Z,9.80
2023-03-30T01:17:26.293Z,9.80
2023-03-30T01:20:31.764Z,9.80
2023-03-30T01:23:40.717Z,9.70
2023-03-30T01:26:39.511Z,9.70
2023-03-30T01:29:34.216Z,9.70
2023-03-30T01:32:49.880Z,9.70
2023-03-30T01:35:47.089Z,9.70
2023-03-30T01:38:47.374Z,9.70
2023-03-30T01:41:38.348Z,9.60
2023-03-30T01:44:31.442Z,9.60
2023-03-30T01:47:20.845Z,9.60
2023-03-30T01:50:10.511Z,9.60
2023-03-30T01:53:01.868Z,9.60
2023-03-30T01:55:53.053Z,9.50
2023-03-30T01:58:44.931Z,9.50
2023-03-30T02:01:34.810Z,9.50
2023-03-30T02:04:24.392Z,9.50
2023-03-30T02:07:14.373Z,9.50
2023-03-30T02:10:03.915Z,9.50
2023-03-30T02:12:53.024Z,9.50
2023-03-30T02:15:43.755Z,9.50
2023-03-30T02:18:32.156Z,9.40
2023-03-30T02:21:20.173Z,9.40
2023-03-30T02:24:10.011Z,9.40
2023-03-30T02:27:00.341Z,9.40
2023-03-30T02:29:48.492Z,9.40
2023-03-30T02:32:41.204Z,9.30
2023-03-30T02:35:36.803Z,9.30
2023-03-30T02:38:33.818Z,9.20
2023-03-30T02:41:28.659Z,9.20
2023-03-30T02:44:20.903Z,9.20
2023-03-30T02:47:12.316Z,9.20
2023-03-30T02:50:04.192Z,9.20
2023-03-30T02:52:55.151Z,9.20
2023-03-30T02:55:48.038Z,9.10
2023-03-30T02:58:40.671Z,9.10
2023-03-30T03:01:32.525Z,9.20
2023-03-30T03:04:22.246Z,9.10
2023-03-30T03:07:12.568Z,9.10
2023-03-30T03:10:00.955Z,9.10
2023-03-30T03:12:48.982Z,9.00
2023-03-30T03:15:38.011Z,9.00
2023-03-30T03:18:26.117Z,8.90
2023-03-30T03:21:14.767Z,8.80
2023-03-30T03:24:04.240Z,8.70
2023-03-30T03:26:52.274Z,8.70
2023-03-30T03:29:40.435Z,8.70
2023-03-30T03:32:28.518Z,8.70
2023-03-30T03:35:17.150Z,8.70
2023-03-30T03:38:06.356Z,8.80
2023-03-30T03:40:56.915Z,8.90
2023-03-30T03:43:44.988Z,8.90
2023-03-30T03:46:33.020Z,8.90
2023-03-30T03:49:21.267Z,8.90
2023-03-30T03:52:09.624Z,9.00
2023-03-30T03:54:57.658Z,9.00
2023-03-30T03:57:47.014Z,9.00
2023-03-30T04:00:35.325Z,9.10
2023-03-30T04:03:23.430Z,9.10
2023-03-30T04:06:11.754Z,9.10
2023-03-30T04:09:01.126Z,9.20
2023-03-30T04:11:49.484Z,9.20
2023-03-30T04:14:38.817Z,9.20
2023-03-30T04:17:26.956Z,9.30
2023-03-30T04:20:15.392Z,9.20
2023-03-30T04:23:03.425Z,9.20
2023-03-30T04:25:51.905Z,9.20
2023-03-30T04:28:40.248Z,9.30
2023-03-30T04:31:34.773Z,9.30
2023-03-30T04:34:23.226Z,9.30
2023-03-30T04:37:11.573Z,9.30
2023-03-30T04:40:00.047Z,9.40
2023-03-30T04:42:49.864Z,9.50
2023-03-30T04:45:37.923Z,9.50
2023-03-30T04:48:27.292Z,9.50
2023-03-30T04:51:15.317Z,9.60
2023-03-30T04:54:03.335Z,9.70
2023-03-30T04:56:51.402Z,9.70
2023-03-30T04:59:39.540Z,9.80
2023-03-30T05:02:27.771Z,9.90
2023-03-30T05:05:17.367Z,10.00
2023-03-30T05:08:05.686Z,10.00
2023-03-30T05:10:53.739Z,10.10
2023-03-30T05:13:41.897Z,10.10
2023-03-30T05:16:29.962Z,10.10
2023-03-30T05:19:18.226Z,10.20
2023-03-30T05:22:07.601Z,10.20
2023-03-30T05:24:55.923Z,10.20
2023-03-30T05:27:44.157Z,10.20
2023-03-30T05:30:32.362Z,10.30
2023-03-30T05:33:20.894Z,10.30
2023-03-30T05:36:09.602Z,10.30
2023-03-30T05:38:59.015Z,10.40
2023-03-30T05:41:47.209Z,10.40
2023-03-30T05:44:35.540Z,10.50
2023-03-30T05:47:25.145Z,10.60
2023-03-30T05:50:13.225Z,10.70
2023-03-30T05:53:01.437Z,10.70
2023-03-30T05:55:51.105Z,10.80
2023-03-30T05:58:39.503Z,10.90
2023-03-30T06:01:27.499Z,10.90
2023-03-30T06:04:16.533Z,11.00
2023-03-30T06:07:04.694Z,11.10
2023-03-30T06:09:52.730Z,11.10
2023-03-30T06:12:42.107Z,11.10
2023-03-30T06:15:30.393Z,11.10
2023-03-30T06:18:18.499Z,11.20
2023-03-30T06:21:07.777Z,11.20
2023-03-30T06:23:55.963Z,11.30
2023-03-30T06:26:44.002Z,11.40
2023-03-30T06:29:33.355Z,11.40
2023-03-30T06:32:21.427Z,11.40
2023-03-30T06:35:10.010Z,11.50
2023-03-30T06:37:58.472Z,11.60
2023-03-30T06:40:46.846Z,11.70
2023-03-30T06:43:35.350Z,11.80
2023-03-30T06:46:25.078Z,11.90
2023-03-30T06:49:13.486Z,11.90
2023-03-30T06:52:04.315Z,12.10
2023-03-30T06:54:53.720Z,12.10
2023-03-30T06:57:41.866Z,12.20
2023-03-30T07:00:29.927Z,12.30
2023-03-30T07:03:29.983Z,12.30
2023-03-30T07:06:20.106Z,12.40
2023-03-30T07:09:08.861Z,12.50
2023-03-30T07:11:56.936Z,12.70
2023-03-30T07:14:44.971Z,12.70
2023-03-30T07:17:32.981Z,12.90
2023-03-30T07:20:22.595Z,13.10
2023-03-30T07:23:11.649Z,13.20
2023-03-30T07:25:59.700Z,13.40
2023-03-30T07:28:48.098Z,13.50
2023-03-30T07:31:37.154Z,13.60
2023-03-30T07:34:25.493Z,13.80
2023-03-30T07:37:20.222Z,13.90
2023-03-30T07:40:10.047Z,14.00
2023-03-30T07:42:58.450Z,14.00
2023-03-30T07:45:46.597Z,14.10
2023-03-30T07:48:34.617Z,14.00
2023-03-30T07:51:22.689Z,14.00
2023-03-30T07:54:13.254Z,14.00
2023-03-30T07:57:01.377Z,14.10
2023-03-30T07:59:49.399Z,14.10
2023-03-30T08:02:37.878Z,14.10
2023-03-30T08:05:25.955Z,14.10
2023-03-30T08:08:13.991Z,14.10
2023-03-30T08:11:03.507Z,14.20
2023-03-30T08:13:51.716Z,14.30
2023-03-30T08:16:39.885Z,14.40
2023-03-30T08:19:28.636Z,14.50
2023-03-30T08:22:16.731Z,14.60
2023-03-30T08:25:05.430Z,14.60
2023-03-30T08:27:54.835Z,14.60
2023-03-30T08:30:42.854Z,14.70
2023-03-30T08:33:31.549Z,14.70
2023-03-30T08:36:20.264Z,14.80
2023-03-30T08:39:08.830Z,14.80
2023-03-30T08:42:01.926Z,14.80
2023-03-30T08:44:54.211Z,14.80
2023-03-30T08:47:43.992Z,14.80
2023-03-30T08:50:33.001Z,14.80
2023-03-30T08:53:21.164Z,14.90
2023-03-30T08:56:11.107Z,14.90
2023-03-30T08:59:04.419Z,15.00
2023-03-30T09:01:56.900Z,15.10
2023-03-30T09:04:57.108Z,15.10
2023-03-30T09:07:49.136Z,15.30
2023-03-30T09:10:38.602Z,15.40
2023-03-30T09:13:27.497Z,15.60
2023-03-30T09:16:19.489Z,15.70
2023-03-30T09:19:13.056Z,15.80
2023-03-30T09:22:03.700Z,15.80
2023-03-30T09:24:52.556Z,15.90
2023-03-30T09:27:43.163Z,16.00
2023-03-30T09:30:33.848Z,16.00
2023-03-30T09:33:27.830Z,16.00
2023-03-30T09:36:18.291Z,16.10
2023-03-30T09:39:10.048Z,16.20
2023-03-30T09:42:05.452Z,16.40
2023-03-30T09:44:56.130Z,16.50
2023-03-30T09:47:44.502Z,16.60
2023-03-30T09:50:37.375Z,16.70
2023-03-30T09:53:29.433Z,16.80
2023-03-30T09:56:19.114Z,16.90
2023-03-30T09:59:20.657Z,17.00
2023-03-30T10:02:19.133Z,17.10
2023-03-30T10:05:07.236Z,17.10
2023-03-30T10:07:57.169Z,17.20
2023-03-30T10:10:47.740Z,17.40
2023-03-30T10:13:37.469Z,17.70
2023-03-30T10:16:27.032Z,17.80
2023-03-30T10:19:18.051Z,17.90
2023-03-30T10:22:14.631Z,18.00
2023-03-30T10:25:10.109Z,18.10
2023-03-30T10:28:02.800Z,18.10
2023-03-30T10:30:51.861Z,18.00
2023-03-30T10:33:41.219Z,18.10
2023-03-30T10:36:30.803Z,18.20
2023-03-30T10:39:22.115Z,18.30
2023-03-30T10:42:12.302Z,18.40
2023-03-30T10:45:02.555Z,18.30
2023-03-30T10:48:00.352Z,18.40
2023-03-30T10:50:52.618Z,18.50
2023-03-30T10:53:44.037Z,18.70
2023-03-30T10:56:33.612Z,18.80
2023-03-30T10:59:45.773Z,18.80
2023-03-30T11:02:45.510Z,18.80
2023-03-30T11:05:35.794Z,19.00
2023-03-30T11:08:25.672Z,19.20
2023-03-30T11:11:16.992Z,19.40
2023-03-30T11:14:08.352Z,19.50
2023-03-30T11:17:00.030Z,19.70
2023-03-30T11:19:50.845Z,19.60
2023-03-30T11:22:42.099Z,19.50
2023-03-30T11:25:31.443Z,19.40
2023-03-30T11:28:22.322Z,19.10
2023-03-30T11:31:14.878Z,18.90
2023-03-30T11:34:06.481Z,18.80
2023-03-30T11:37:00.695Z,18.80
2023-03-30T11:39:52.942Z,18.80
2023-03-30T11:42:41.310Z,18.80
2023-03-30T11:45:42.326Z,18.80
2023-03-30T11:48:46.598Z,18.70
2023-03-30T11:51:39.429Z,18.50
2023-03-30T11:55:01.710Z,18.50
2023-03-30T11:57:53.528Z,18.50
2023-03-30T12:00:49.131Z,18.50
2023-03-30T12:03:40.395Z,18.50
2023-03-30T12:06:30.946Z,18.60
2023-03-30T12:09:24.375Z,18.70
2023-03-30T12:12:15.909Z,18.70
2023-03-30T12:15:10.339Z,18.50
2023-03-30T12:18:02.168Z,18.50
2023-03-30T12:20:54.327Z,18.40
2023-03-30T12:23:46.097Z,18.40
2023-03-30T12:26:37.848Z,18.50
2023-03-30T12:30:01.593Z,18.40
2023-03-30T12:33:01.428Z,18.20
2023-03-30T12:35:54.349Z,17.90
2023-03-30T12:38:46.224Z,17.20
2023-03-30T12:41:44.605Z,16.70
2023-03-30T12:44:40.282Z,16.20
2023-03-30T12:47:43.591Z,16.10
2023-03-30T12:50:34.599Z,15.80
2023-03-30T12:53:34.234Z,15.50
2023-03-30T12:56:28.867Z,14.90
2023-03-30T12:59:28.094Z,14.20
2023-03-30T13:02:31.936Z,13.60
2023-03-30T13:05:21.557Z,13.00
2023-03-30T13:08:11.095Z,12.60
2023-03-30T13:11:07.197Z,12.50
2023-03-30T13:13:56.923Z,12.40
2023-03-30T13:16:49.665Z,12.40
2023-03-30T13:19:49.186Z,12.30
2023-03-30T13:22:37.384Z,12.30
2023-03-30T13:25:26.812Z,12.40
2023-03-30T13:28:33.679Z,12.30
2023-03-30T13:31:37.476Z,12.30
2023-03-30T13:34:32.533Z,12.30
2023-03-30T13:37:23.736Z,12.30
2023-03-30T13:40:15.135Z,12.40
2023-03-30T13:43:09.638Z,12.60
2023-03-30T13:46:09.618Z,12.60
2023-03-30T13:49:19.070Z,12.80
2023-03-30T13:52:11.561Z,12.90
2023-03-30T13:55:01.451Z,13.10
2023-03-30T13:57:49.612Z,13.30
2023-03-30T14:00:45.241Z,13.40
2023-03-30T14:03:36.127Z,13.70
2023-03-30T14:06:26.367Z,14.40
2023-03-30T14:09:15.834Z,14.70
2023-03-30T14:12:06.062Z,14.60
2023-03-30T14:14:54.120Z,14.50
2023-03-30T14:17:42.341Z,14.40
2023-03-30T14:20:37.721Z,14.40
2023-03-30T14:23:29.727Z,14.40
2023-03-30T14:26:18.723Z,14.50
2023-03-30T14:29:13.346Z,14.50
2023-03-30T14:32:09.019Z,14.40
2023-03-30T14:34:57.955Z,14.40
2023-03-30T14:37:51.887Z,14.40
2023-03-30T14:40:40.842Z,14.50
2023-03-30T14:43:30.154Z,14.50
2023-03-30T14:46:19.691Z,14.50
2023-03-30T14:49:08.511Z,14.50
2023-03-30T14:52:01.872Z,14.70
2023-03-30T14:55:05.276Z,14.80
2023-03-30T14:57:55.879Z,15.20
2023-03-30T15:00:44.251Z,15.70
2023-03-30T15:03:35.046Z,15.90
2023-03-30T15:06:24.730Z,15.90
2023-03-30T15:09:15.701Z,15.80
2023-03-30T15:12:04.722Z,15.80
2023-03-30T15:14:55.878Z,16.00
2023-03-30T15:17:46.211Z,16.20
2023-03-30T15:20:35.778Z,16.50
2023-03-30T15:23:24.355Z,18.40
2023-03-30T15:26:13.206Z,20.00
2023-03-30T15:29:01.320Z,21.00
2023-03-30T15:31:59.354Z,21.90
2023-03-30T15:35:01.014Z,22.30
2023-03-30T15:37:55.101Z,22.50
2023-03-30T15:40:44.071Z,21.30
2023-03-30T15:43:33.708Z,20.10
2023-03-30T15:46:22.481Z,18.80
2023-03-30T15:49:11.269Z,17.90
2023-03-30T15:52:01.808Z,17.20
2023-03-30T15:54:53.825Z,16.70
2023-03-30T15:57:43.235Z,16.30
2023-03-30T16:00:35.085Z,15.80
2023-03-30T16:03:32.918Z,15.30
2023-03-30T16:06:21.441Z,14.80
2023-03-30T16:09:09.834Z,14.60
2023-03-30T16:11:59.294Z,14.90
2023-03-30T16:14:47.859Z,15.60
2023-03-30T16:17:36.162Z,16.10
2023-03-30T16:20:24.826Z,16.20
2023-03-30T16:23:12.885Z,16.10
2023-03-30T16:26:01.068Z,15.90
2023-03-30T16:28:50.964Z,15.60
2023-03-30T16:31:39.033Z,15.20
2023-03-30T16:34:27.428Z,15.00
2023-03-30T16:37:15.469Z,14.80
2023-03-30T16:40:06.367Z,14.60
2023-03-30T16:42:54.372Z,14.40
2023-03-30T16:45:43.786Z,14.20
2023-03-30T16:48:31.905Z,14.00
2023-03-30T16:51:20.203Z,13.90
2023-03-30T16:54:16.341Z,13.80
2023-03-30T16:57:11.595Z,13.80
2023-03-30T16:59:59.629Z,13.70
2023-03-30T17:02:49.273Z,13.60
2023-03-30T17:05:37.536Z,13.60
2023-03-30T17:08:26.412Z,13.50
2023-03-30T17:11:14.455Z,13.50
2023-03-30T17:14:02.522Z,13.40
2023-03-30T17:16:50.787Z,13.20
2023-03-30T17:19:40.199Z,12.90
2023-03-30T17:22:28.185Z,12.70
2023-03-30T17:25:16.903Z,12.50
2023-03-30T17:28:08.535Z,12.30
2023-03-30T17:30:57.261Z,12.10
2023-03-30T17:33:45.348Z,12.10
2023-03-30T17:36:35.128Z,12.00
2023-03-30T17:39:23.202Z,12.00
2023-03-30T17:42:11.191Z,12.00
2023-03-30T17:44:59.213Z,11.90
2023-03-30T17:47:47.390Z,12.00
2023-03-30T17:50:36.467Z,11.90
2023-03-30T17:53:25.848Z,11.90
2023-03-30T17:56:14.481Z,11.80
2023-03-30T17:59:02.551Z,11.90
2023-03-30T18:01:50.721Z,11.90
2023-03-30T18:04:38.845Z,11.90
2023-03-30T18:07:26.884Z,11.90
2023-03-30T18:10:20.550Z,11.80
2023-03-30T18:13:08.572Z,11.80
2023-03-30T18:15:57.666Z,11.80
2023-03-30T18:18:45.696Z,11.70
2023-03-30T18:21:33.746Z,11.60
2023-03-30T18:24:21.781Z,11.50
2023-03-30T18:27:11.929Z,11.40
2023-03-30T18:29:59.962Z,11.30
2023-03-30T18:32:48.187Z,11.30
2023-03-30T18:35:37.203Z,11.20
2023-03-30T18:38:25.883Z,11.20
2023-03-30T18:41:14.008Z,11.20
2023-03-30T18:44:03.418Z,11.20
2023-03-30T18:46:52.674Z,11.20
2023-03-30T18:49:40.796Z,11.20
2023-03-30T18:52:29.439Z,11.20
2023-03-30T18:55:17.654Z,11.20
2023-03-30T18:58:06.565Z,11.30
2023-03-30T19:00:56.698Z,11.20
2023-03-30T19:03:45.805Z,11.30
2023-03-30T19:06:33.906Z,11.20
2023-03-30T19:09:32.811Z,11.20
2023-03-30T19:12:28.465Z,11.20
2023-03-30T19:15:20.505Z,11.20
2023-03-30T19:18:09.990Z,11.20
2023-03-30T19:20:58.081Z,11.20
2023-03-30T19:23:46.488Z,11.20
2023-03-30T19:26:35.195Z,11.30
2023-03-30T19:29:23.264Z,11.30
2023-03-30T19:32:11.766Z,11.40
2023-03-30T19:35:01.203Z,11.40
2023-03-30T19:37:49.209Z,11.40
2023-03-30T19:40:37.561Z,11.40
2023-03-30T19:43:25.630Z,11.40
2023-03-30T19:46:13.713Z,11.40
2023-03-30T19:49:02.345Z,11.40
2023-03-30T19:51:52.970Z,11.40
2023-03-30T19:54:41.012Z,11.50
2023-03-30T19:57:29.101Z,11.50
2023-03-30T20:00:18.170Z,11.60
2023-03-30T20:03:06.612Z,11.50
2023-03-30T20:05:55.211Z,11.50
2023-03-30T20:08:44.600Z,11.50
2023-03-30T20:11:32.697Z,11.40
2023-03-30T20:14:20.803Z,11.40
2023-03-30T20:17:10.339Z,11.30
2023-03-30T20:20:02.820Z,11.30
2023-03-30T20:22:53.536Z,11.20
2023-03-30T20:25:49.318Z,11.30
2023-03-30T20:28:37.558Z,11.30
2023-03-30T20:31:25.963Z,11.40
2023-03-30T20:34:15.464Z,11.40
2023-03-30T20:37:03.502Z,11.50
2023-03-30T20:39:51.536Z,11.50
2023-03-30T20:42:44.281Z,11.60
2023-03-30T20:45:32.419Z,11.60
2023-03-30T20:48:27.142Z,11.60
2023-03-30T20:51:16.437Z,11.60
2023-03-30T20:54:04.671Z,11.50
2023-03-30T20:56:52.735Z,11.50
2023-03-30T20:59:42.119Z,11.50
2023-03-30T21:02:31.559Z,11.40
2023-03-30T21:05:19.659Z,11.30
2023-03-30T21:08:08.540Z,11.20
2023-03-30T21:10:56.769Z,11.20
2023-03-30T21:13:44.798Z,11.20
2023-03-30T21:16:34.205Z,11.10
2023-03-30T21:19:22.269Z,11.20
2023-03-30T21:22:10.509Z,11.20
2023-03-30T21:24:58.544Z,11.20
2023-03-30T21:27:46.555Z,11.20
2023-03-30T21:30:34.745Z,11.20
2023-03-30T21:33:24.424Z,11.20
2023-03-30T21:36:12.672Z,11.20
2023-03-30T21:39:01.055Z,11.30
2023-03-30T21:41:49.243Z,11.20
2023-03-30T21:44:37.555Z,11.20
2023-03-30T21:47:25.701Z,11.10
2023-03-30T21:50:15.125Z,11.10
2023-03-30T21:53:03.194Z,11.20
2023-03-30T21:55:51.543Z,11.20
2023-03-30T21:58:40.237Z,11.20
2023-03-30T22:01:28.416Z,11.20
2023-03-30T22:04:16.456Z,11.20
2023-03-30T22:07:05.928Z,11.30
2023-03-30T22:09:54.005Z,11.30
2023-03-30T22:12:42.082Z,11.30
2023-03-30T22:15:30.230Z,11.30
2023-03-30T22:18:18.267Z,11.30
2023-03-30T22:21:07.326Z,11.20
2023-03-30T22:23:56.884Z,11.10
2023-03-30T22:26:45.330Z,11.10
2023-03-30T22:29:33.358Z,11.10
2023-03-30T22:32:21.413Z,11.00
2023-03-30T22:35:10.074Z,11.00
2023-03-30T22:37:58.078Z,10.90
2023-03-30T22:40:47.486Z,10.90
2023-03-30T22:43:35.911Z,10.90
2023-03-30T22:46:24.825Z,10.90
2023-03-30T22:49:14.102Z,10.90
2023-03-30T22:52:04.692Z,10.90
2023-03-30T22:54:52.739Z,10.80
2023-03-30T22:57:42.145Z,10.80
2023-03-30T23:00:30.181Z,10.80
2023-03-30T23:03:18.468Z,10.80
2023-03-30T23:06:06.979Z,10.80
2023-03-30T23:08:55.290Z,10.90
2023-03-30T23:11:45.567Z,10.80
2023-03-30T23:14:37.931Z,10.80
2023-03-30T23:17:26.765Z,10.80
2023-03-30T23:20:15.411Z,10.70
2023-03-30T23:23:03.476Z,10.60
2023-03-30T23:25:52.267Z,10.60
2023-03-30T23:28:41.290Z,10.60
2023-03-30T23:31:30.892Z,10.50
2023-03-30T23:34:19.045Z,10.60
2023-03-30T23:37:07.138Z,10.60
2023-03-30T23:39:55.442Z,10.60
2023-03-30T23:42:43.486Z,10.70
2023-03-30T23:45:31.626Z,10.70
2023-03-30T23:48:21.223Z,10.70
2023-03-30T23:51:09.725Z,10.70
2023-03-30T23:54:00.140Z,10.70
2023-03-30T23:56:48.978Z,10.60
2023-03-30T23:59:37.283Z,10.60
